Terminal Aerodrome Forecast
Issued by NWS

Home | Current Version | Previous Version | Text Only | Print | Product List | Glossary On
Versions: 1 2 3 4 5 6 7 8 9 10 11 12 13 14 15 16 17 18
000
FTUS43 KDVN 282300
TAFCID
TAF
KCID 282320Z 2900/2924 VRB03KT P6SM SCT040
      TEMPO 2910/2913 4SM BR=

USA.gov is the U.S. government's official web portal to all federal, state and local government web resources and services.